Time;durP1;ratioP1;P1;durP2;ratioP2;P2;SDS_P1;SDS_P2;PMS_P1;PMS_P2;Temp;Humidity;BMP_temperature;BMP_pressure;BME280_temperature;BME280_humidity;BME280_pressure;Samples;Min_cycle;Max_cycle;Signal;HPM_P1;HPM_P2
2021/12/25 00:00:33;;;;;;;12.27;11.10;;;9.40;99.90;;;;;;5114951;28;20787;-69
2021/12/25 00:02:59;;;;;;;12.13;10.83;;;9.40;99.90;;;;;;5114004;28;20984;-69
2021/12/25 00:05:26;;;;;;;12.93;10.40;;;9.40;99.90;;;;;;5114477;28;20446;-69
2021/12/25 00:07:53;;;;;;;11.37;10.20;;;9.40;99.90;;;;;;5114404;28;20450;-69
2021/12/25 00:10:20;;;;;;;11.97;10.77;;;9.30;99.90;;;;;;5114330;28;20478;-69
2021/12/25 00:12:49;;;;;;;12.60;11.30;;;9.30;99.90;;;;;;5113940;28;20940;-69
2021/12/25 00:15:38;;;;;;;13.13;10.53;;;9.30;99.90;;;;;;5114020;28;20458;-69
2021/12/25 00:18:05;;;;;;;10.87;9.70;;;9.30;99.90;;;;;;5112383;28;20492;-69
2021/12/25 00:20:32;;;;;;;11.57;10.37;;;9.30;99.90;;;;;;5115145;28;20450;-70
2021/12/25 00:23:00;;;;;;;12.23;10.93;;;9.30;99.90;;;;;;5114523;28;20447;-69
2021/12/25 00:25:31;;;;;;;11.50;10.30;;;9.30;99.90;;;;;;5114378;28;20454;-69
2021/12/25 00:28:05;;;;;;;12.63;11.33;;;9.30;99.90;;;;;;5114175;28;20426;-69
2021/12/25 00:30:38;;;;;;;11.93;10.73;;;9.30;99.90;;;;;;5114000;28;20502;-69
2021/12/25 00:33:18;;;;;;;11.10;10.00;;;9.30;99.90;;;;;;5114017;28;20459;-69
2021/12/25 00:35:46;;;;;;;11.97;10.73;;;9.30;99.90;;;;;;5113598;28;21016;-69
2021/12/25 00:38:12;;;;;;;11.93;10.40;;;9.30;99.90;;;;;;5117724;28;20949;-69
2021/12/25 00:40:39;;;;;;;11.90;10.70;;;9.30;99.90;;;;;;5118406;28;20932;-69
2021/12/25 00:43:07;;;;;;;10.93;9.83;;;9.20;99.90;;;;;;5118066;28;20458;-69
2021/12/25 00:45:34;;;;;;;11.50;10.40;;;9.20;99.90;;;;;;5118102;28;20434;-69
2021/12/25 00:48:01;;;;;;;12.67;10.60;;;9.20;99.90;;;;;;5117723;28;20822;-69
2021/12/25 00:50:28;;;;;;;11.53;10.33;;;9.20;99.90;;;;;;5117866;28;20840;-69
2021/12/25 00:52:54;;;;;;;11.57;10.37;;;9.20;99.90;;;;;;5117897;27;20439;-69
2021/12/25 00:55:21;;;;;;;11.30;10.10;;;9.20;99.90;;;;;;5117856;28;20447;-69
2021/12/25 00:57:48;;;;;;;12.00;10.60;;;9.20;99.90;;;;;;5117828;27;20423;-69
2021/12/25 01:00:17;;;;;;;10.53;9.53;;;9.20;99.90;;;;;;5117408;28;20820;-69
2021/12/25 01:02:46;;;;;;;10.60;9.50;;;9.20;99.90;;;;;;5117565;28;20443;-69
2021/12/25 01:05:14;;;;;;;11.50;10.43;;;9.10;99.90;;;;;;5117631;28;20435;-69
2021/12/25 01:07:41;;;;;;;10.57;9.57;;;9.10;99.90;;;;;;5117668;28;20427;-69
2021/12/25 01:10:15;;;;;;;9.77;8.77;;;9.10;99.90;;;;;;5117443;28;20450;-69
2021/12/25 01:12:54;;;;;;;10.73;9.27;;;9.10;99.90;;;;;;5118258;28;20430;-69
2021/12/25 01:15:29;;;;;;;10.50;9.40;;;9.10;99.90;;;;;;5117465;27;20434;-69
2021/12/25 01:21:06;;;;;;;9.47;8.50;;;9.10;99.90;;;;;;5106272;28;20427;-69
2021/12/25 01:23:57;;;;;;;8.97;8.07;;;9.10;99.90;;;;;;5117225;28;20462;-69
2021/12/25 01:26:52;;;;;;;8.13;7.37;;;9.10;99.90;;;;;;5117192;28;20449;-69
2021/12/25 01:29:34;;;;;;;10.13;8.40;;;9.00;99.90;;;;;;5117232;28;20426;-69
2021/12/25 01:37:42;;;;;;;8.80;8.00;;;8.90;99.90;;;;;;5117118;28;20402;-69
2021/12/25 01:40:43;;;;;;;8.90;8.10;;;8.90;99.90;;;;;;5117011;28;20427;-69
2021/12/25 01:48:43;;;;;;;8.27;7.43;;;8.70;99.90;;;;;;5115573;28;20472;-69
2021/12/25 01:51:11;;;;;;;7.20;6.50;;;8.80;99.90;;;;;;5116991;28;20475;-69
2021/12/25 01:53:38;;;;;;;8.83;8.03;;;8.70;99.90;;;;;;5116681;28;20466;-69
2021/12/25 01:56:06;;;;;;;7.47;6.77;;;8.70;99.90;;;;;;5116762;28;20442;-69
2021/12/25 01:58:33;;;;;;;7.03;6.33;;;8.70;99.90;;;;;;5116527;28;20455;-69
2021/12/25 02:01:01;;;;;;;8.60;7.10;;;8.70;99.90;;;;;;5116621;28;20450;-69
2021/12/25 02:03:30;;;;;;;7.47;6.77;;;8.70;99.90;;;;;;5116479;28;20463;-69
2021/12/25 02:06:00;;;;;;;6.47;5.70;;;8.70;99.90;;;;;;5116504;28;20515;-69
2021/12/25 02:08:26;;;;;;;8.10;5.30;;;8.60;99.90;;;;;;5116481;28;20439;-69
2021/12/25 02:10:54;;;;;;;7.30;6.70;;;8.60;99.90;;;;;;5116314;28;20477;-69
2021/12/25 02:13:21;;;;;;;5.90;5.40;;;8.50;99.90;;;;;;5116031;28;20990;-69
2021/12/25 02:15:51;;;;;;;5.70;5.20;;;8.50;99.90;;;;;;5116316;27;20447;-69
2021/12/25 02:18:24;;;;;;;6.00;5.40;;;8.50;99.90;;;;;;5116260;28;20492;-69
2021/12/25 02:20:59;;;;;;;5.90;5.40;;;8.50;99.90;;;;;;5116247;28;20434;-69
2021/12/25 02:23:26;;;;;;;6.23;5.73;;;8.50;99.90;;;;;;5115778;28;20473;-69
2021/12/25 02:25:56;;;;;;;5.83;5.23;;;8.50;99.90;;;;;;5116085;28;20443;-69
2021/12/25 02:28:25;;;;;;;6.70;6.10;;;8.40;99.90;;;;;;5116173;28;20832;-69
2021/12/25 02:30:55;;;;;;;7.30;6.60;;;8.40;99.90;;;;;;5115668;28;20996;-69
2021/12/25 02:33:22;;;;;;;7.20;6.50;;;8.40;99.90;;;;;;5115940;28;20463;-69
2021/12/25 02:35:49;;;;;;;6.80;6.20;;;8.50;99.90;;;;;;5115938;28;20446;-69
2021/12/25 02:38:17;;;;;;;9.30;8.40;;;8.50;99.90;;;;;;5115541;28;20858;-69
2021/12/25 02:40:44;;;;;;;7.83;7.00;;;8.50;99.90;;;;;;5115860;28;20785;-69
2021/12/25 02:43:11;;;;;;;7.77;6.97;;;8.40;99.90;;;;;;5115394;28;20462;-69
2021/12/25 02:45:38;;;;;;;9.13;8.23;;;8.40;99.90;;;;;;5115669;28;20454;-69
2021/12/25 02:48:08;;;;;;;9.17;8.27;;;8.40;99.90;;;;;;5115660;28;20461;-69
2021/12/25 02:50:37;;;;;;;8.70;7.90;;;8.30;99.90;;;;;;5115541;28;20538;-69
2021/12/25 02:53:07;;;;;;;7.43;6.73;;;8.30;99.90;;;;;;5115530;28;20474;-69
2021/12/25 02:55:37;;;;;;;7.90;7.10;;;8.30;99.90;;;;;;5115606;28;20431;-69
2021/12/25 02:58:04;;;;;;;8.20;7.40;;;8.30;99.90;;;;;;5115313;27;20439;-69
2021/12/25 03:00:33;;;;;;;7.47;6.87;;;8.20;99.90;;;;;;5114990;28;20462;-69
2021/12/25 03:03:03;;;;;;;8.00;7.30;;;8.20;99.90;;;;;;5115297;28;20443;-69
2021/12/25 03:05:30;;;;;;;7.93;7.23;;;8.20;99.90;;;;;;5115300;28;20446;-69
2021/12/25 03:07:56;;;;;;;8.10;7.30;;;8.20;99.90;;;;;;5115263;28;20442;-69
2021/12/25 03:10:23;;;;;;;8.30;7.53;;;8.10;99.90;;;;;;5115021;28;20430;-69
2021/12/25 03:13:04;;;;;;;8.20;7.40;;;8.10;99.90;;;;;;5115666;28;20446;-68
2021/12/25 03:15:42;;;;;;;8.17;7.33;;;8.10;99.90;;;;;;5115224;28;20434;-68
2021/12/25 03:18:09;;;;;;;8.47;7.67;;;8.10;99.90;;;;;;5115075;28;20441;-68
2021/12/25 03:20:38;;;;;;;9.30;8.40;;;8.10;99.90;;;;;;5115117;28;20450;-67
2021/12/25 03:23:05;;;;;;;8.40;7.60;;;8.10;99.90;;;;;;5114815;28;20471;-68
2021/12/25 03:25:32;;;;;;;7.80;7.10;;;8.20;99.90;;;;;;5115422;28;20455;-69
2021/12/25 03:28:00;;;;;;;9.10;8.20;;;8.20;99.90;;;;;;5115141;28;20458;-68
2021/12/25 03:30:27;;;;;;;10.53;8.93;;;8.20;99.90;;;;;;5115098;28;20443;-67
2021/12/25 03:32:55;;;;;;;11.20;9.97;;;8.20;99.90;;;;;;5114497;28;20993;-67
2021/12/25 03:35:22;;;;;;;11.47;10.27;;;8.20;99.90;;;;;;5114847;28;20443;-67
2021/12/25 03:37:49;;;;;;;11.00;9.90;;;8.20;99.90;;;;;;5114706;28;20447;-67
2021/12/25 03:40:15;;;;;;;10.80;9.70;;;8.20;99.90;;;;;;5114704;28;20435;-67
2021/12/25 03:42:43;;;;;;;10.87;9.77;;;8.20;99.90;;;;;;5114566;28;20447;-67
2021/12/25 03:45:11;;;;;;;13.60;12.20;;;8.10;99.90;;;;;;5114572;28;20447;-67
2021/12/25 03:47:40;;;;;;;12.00;10.80;;;8.10;99.90;;;;;;5114545;27;20438;-67
2021/12/25 03:53:21;;;;;;;14.83;12.40;;;8.10;99.90;;;;;;5114125;28;20458;-67
2021/12/25 03:58:32;;;;;;;13.60;11.93;;;8.00;99.90;;;;;;5114263;28;20445;-67
2021/12/25 04:01:13;;;;;;;13.93;12.47;;;8.00;99.90;;;;;;5114230;27;20443;-67
2021/12/25 04:03:47;;;;;;;13.43;11.97;;;8.00;99.90;;;;;;5113932;28;20920;-67
2021/12/25 04:06:13;;;;;;;15.00;12.60;;;8.00;99.90;;;;;;5114312;28;20427;-67
2021/12/25 04:08:44;;;;;;;16.50;12.43;;;8.00;99.90;;;;;;5114189;28;20469;-67
2021/12/25 04:11:15;;;;;;;14.50;12.17;;;8.00;99.90;;;;;;5113430;28;20553;-67
2021/12/25 04:13:42;;;;;;;12.57;11.27;;;7.90;99.90;;;;;;5114072;28;20473;-67
2021/12/25 04:16:10;;;;;;;13.40;12.10;;;7.90;99.90;;;;;;5114120;28;20442;-67
2021/12/25 04:18:37;;;;;;;14.77;13.07;;;7.90;99.90;;;;;;5114059;28;20447;-67
2021/12/25 04:21:04;;;;;;;15.83;12.53;;;7.80;99.90;;;;;;5114049;28;20465;-67
2021/12/25 04:23:30;;;;;;;13.13;11.80;;;7.70;99.90;;;;;;5114147;28;20473;-66
2021/12/25 04:25:59;;;;;;;13.40;12.00;;;7.70;99.90;;;;;;5113745;28;20529;-66
2021/12/25 04:28:36;;;;;;;13.43;11.33;;;7.70;99.90;;;;;;5113976;28;20451;-66
2021/12/25 04:31:22;;;;;;;13.40;11.60;;;7.70;99.90;;;;;;5113893;28;20526;-66
2021/12/25 05:01:47;;;;;;;14.47;13.07;;;7.40;99.90;;;;;;5113812;28;20441;-66
2021/12/25 05:04:19;;;;;;;14.27;12.87;;;7.30;99.90;;;;;;5113827;28;20454;-66
2021/12/25 05:06:48;;;;;;;13.93;12.53;;;7.40;99.90;;;;;;5113712;28;20426;-66
2021/12/25 05:09:14;;;;;;;14.43;12.93;;;7.30;99.90;;;;;;5113680;28;20855;-66
2021/12/25 05:11:41;;;;;;;14.50;13.10;;;7.30;99.90;;;;;;5114063;28;20470;-66
2021/12/25 05:14:08;;;;;;;14.53;13.13;;;7.20;99.90;;;;;;5113504;28;20466;-66
2021/12/25 05:16:35;;;;;;;15.97;14.30;;;7.20;99.90;;;;;;5113563;28;20517;-66
2021/12/25 05:19:01;;;;;;;15.90;14.30;;;7.20;99.90;;;;;;5113575;28;20445;-66
2021/12/25 05:21:28;;;;;;;13.27;11.97;;;7.20;99.90;;;;;;5114103;28;20420;-66
2021/12/25 05:23:58;;;;;;;13.77;12.47;;;7.10;99.90;;;;;;5116291;28;20462;-66
2021/12/25 05:26:24;;;;;;;14.33;12.83;;;7.10;99.90;;;;;;5117976;28;20431;-66
2021/12/25 05:28:58;;;;;;;14.20;12.80;;;7.10;99.90;;;;;;5117320;28;20446;-66
2021/12/25 05:31:27;;;;;;;14.17;12.67;;;7.10;99.90;;;;;;5117202;27;20469;-66
2021/12/25 05:33:54;;;;;;;15.50;13.90;;;7.00;99.90;;;;;;5116787;28;20516;-66
2021/12/25 05:36:21;;;;;;;15.33;13.90;;;7.10;99.90;;;;;;5117639;27;20454;-66
2021/12/25 05:38:48;;;;;;;13.47;12.17;;;7.00;99.90;;;;;;5116749;28;20962;-66
2021/12/25 05:41:17;;;;;;;14.83;13.43;;;7.10;99.90;;;;;;5117038;28;20466;-66
2021/12/25 05:43:43;;;;;;;14.97;13.47;;;7.00;99.90;;;;;;5117114;28;20471;-66
2021/12/25 05:46:10;;;;;;;14.80;13.30;;;7.00;99.90;;;;;;5116918;28;20442;-66
2021/12/25 05:48:37;;;;;;;14.20;12.80;;;7.00;99.90;;;;;;5116592;28;20932;-66
2021/12/25 05:51:05;;;;;;;14.97;13.47;;;7.00;99.90;;;;;;5116870;27;20446;-66
2021/12/25 05:53:32;;;;;;;14.27;12.87;;;7.00;99.90;;;;;;5116684;28;20478;-66
2021/12/25 05:55:59;;;;;;;17.00;12.97;;;7.00;99.90;;;;;;5116698;28;20793;-66
2021/12/25 05:58:27;;;;;;;13.87;12.47;;;7.00;99.90;;;;;;5116462;28;20463;-66
2021/12/25 06:00:54;;;;;;;15.73;14.10;;;7.00;99.90;;;;;;5116425;28;20893;-66
2021/12/25 06:03:20;;;;;;;14.37;12.87;;;7.00;99.90;;;;;;5116201;27;20972;-66
2021/12/25 06:05:47;;;;;;;15.43;13.83;;;7.00;99.90;;;;;;5116553;28;20446;-66
2021/12/25 06:08:15;;;;;;;13.87;12.53;;;7.00;99.90;;;;;;5116506;28;20469;-66
2021/12/25 06:10:42;;;;;;;17.30;14.10;;;7.00;99.90;;;;;;5116132;28;20442;-66
2021/12/25 06:13:10;;;;;;;14.70;13.20;;;7.00;99.90;;;;;;5116225;28;20486;-66
2021/12/25 06:15:39;;;;;;;16.27;13.40;;;7.00;99.90;;;;;;5116355;28;20451;-66
2021/12/25 06:18:05;;;;;;;14.37;12.60;;;7.00;99.90;;;;;;5116365;28;20442;-66
2021/12/25 06:20:32;;;;;;;13.70;12.30;;;6.90;99.90;;;;;;5116047;28;20820;-66
2021/12/25 06:22:59;;;;;;;14.00;12.60;;;6.80;99.90;;;;;;5116125;28;20468;-66
2021/12/25 06:25:26;;;;;;;14.73;13.23;;;6.80;99.90;;;;;;5116391;28;20819;-66
2021/12/25 06:27:53;;;;;;;15.07;13.60;;;6.80;99.90;;;;;;5117717;28;20439;-66
2021/12/25 06:30:20;;;;;;;13.30;12.00;;;6.80;99.90;;;;;;5121160;27;20454;-67
2021/12/25 06:32:48;;;;;;;13.50;12.13;;;6.80;99.90;;;;;;5117434;28;20475;-67
2021/12/25 06:35:15;;;;;;;16.57;12.70;;;6.80;99.90;;;;;;5115632;28;20431;-67
2021/12/25 06:37:45;;;;;;;13.90;12.50;;;6.80;99.90;;;;;;5116194;28;20451;-67
2021/12/25 06:40:12;;;;;;;13.93;12.53;;;6.80;99.90;;;;;;5115709;28;20945;-66
2021/12/25 06:42:40;;;;;;;14.43;12.93;;;6.70;99.90;;;;;;5115861;27;20793;-66
2021/12/25 06:45:07;;;;;;;13.03;11.73;;;6.70;99.90;;;;;;5115770;28;20470;-66
2021/12/25 06:47:34;;;;;;;11.70;10.50;;;6.70;99.90;;;;;;5115908;28;20427;-66
2021/12/25 06:50:03;;;;;;;11.50;10.30;;;6.70;99.90;;;;;;5115415;28;20450;-66
2021/12/25 06:52:29;;;;;;;12.00;10.80;;;6.70;99.90;;;;;;5115707;28;20475;-66
2021/12/25 06:54:56;;;;;;;13.30;11.90;;;6.70;99.90;;;;;;5115526;27;20470;-66
2021/12/25 06:57:23;;;;;;;11.30;10.20;;;6.70;99.90;;;;;;5115544;28;20440;-66
2021/12/25 06:59:49;;;;;;;12.27;11.07;;;6.60;99.90;;;;;;5115214;27;20468;-66
2021/12/25 07:02:16;;;;;;;11.10;10.00;;;6.60;99.90;;;;;;5115357;28;20508;-66
2021/12/25 07:04:43;;;;;;;12.33;11.03;;;6.60;99.90;;;;;;5115242;28;20463;-66
2021/12/25 07:07:11;;;;;;;10.90;9.80;;;6.50;99.90;;;;;;5115333;28;20443;-66
2021/12/25 07:09:38;;;;;;;10.40;9.40;;;6.50;99.90;;;;;;5115335;28;20442;-67
2021/12/25 07:12:06;;;;;;;9.90;8.93;;;6.50;99.90;;;;;;5115095;28;20486;-67
2021/12/25 07:14:32;;;;;;;11.50;10.40;;;6.40;99.90;;;;;;5114790;28;20980;-66
2021/12/25 07:16:59;;;;;;;11.10;10.00;;;6.40;99.90;;;;;;5115171;28;20519;-66
2021/12/25 07:19:26;;;;;;;10.83;9.73;;;6.30;99.90;;;;;;5115131;27;20427;-66
2021/12/25 07:21:52;;;;;;;12.93;11.57;;;6.30;99.90;;;;;;5114794;28;20450;-66
2021/12/25 07:24:20;;;;;;;10.90;9.80;;;6.30;99.90;;;;;;5114807;28;20471;-66
2021/12/25 07:26:47;;;;;;;10.47;9.50;;;6.30;99.90;;;;;;5114943;28;20451;-66
2021/12/25 07:29:14;;;;;;;10.50;9.50;;;6.30;99.90;;;;;;5114974;28;20454;-66
2021/12/25 07:31:41;;;;;;;11.30;10.20;;;6.30;99.90;;;;;;5114717;28;20454;-66
2021/12/25 07:34:08;;;;;;;10.70;9.60;;;6.30;99.90;;;;;;5114724;28;20467;-66
2021/12/25 07:36:34;;;;;;;10.97;9.97;;;6.30;99.90;;;;;;5114416;28;20487;-65
2021/12/25 07:39:01;;;;;;;10.33;9.30;;;6.30;99.90;;;;;;5115779;28;20449;-65
2021/12/25 07:41:29;;;;;;;11.07;10.07;;;6.20;99.90;;;;;;5114642;28;20438;-65
2021/12/25 07:43:56;;;;;;;11.67;10.47;;;6.10;99.90;;;;;;5114534;28;20482;-65
2021/12/25 07:46:23;;;;;;;11.13;10.00;;;6.10;99.90;;;;;;5114589;28;20820;-65
2021/12/25 07:48:50;;;;;;;11.10;10.10;;;6.10;99.90;;;;;;5114568;28;20449;-65
2021/12/25 07:51:17;;;;;;;9.67;8.80;;;6.10;99.90;;;;;;5114214;28;20482;-65
2021/12/25 07:53:45;;;;;;;11.03;10.03;;;6.10;99.90;;;;;;5114329;28;20539;-66
2021/12/25 07:56:12;;;;;;;11.07;9.97;;;6.10;99.90;;;;;;5114473;28;20538;-65
2021/12/25 07:58:40;;;;;;;10.37;9.30;;;6.00;99.90;;;;;;5114536;28;20455;-65
2021/12/25 08:01:07;;;;;;;10.63;9.60;;;6.10;99.90;;;;;;5114366;28;20808;-65
2021/12/25 08:03:35;;;;;;;11.40;10.40;;;6.10;99.90;;;;;;5114640;28;20501;-66
2021/12/25 08:06:01;;;;;;;10.60;9.53;;;6.10;99.90;;;;;;5114284;28;20518;-66
2021/12/25 08:08:28;;;;;;;10.67;9.70;;;6.10;99.90;;;;;;5113978;28;20443;-66
2021/12/25 08:10:56;;;;;;;9.37;8.47;;;6.10;99.90;;;;;;5114187;28;20454;-66
2021/12/25 08:13:23;;;;;;;10.23;9.23;;;6.10;99.90;;;;;;5114082;28;20559;-66
2021/12/25 08:15:51;;;;;;;10.47;9.50;;;6.00;99.90;;;;;;5114128;28;20454;-65
2021/12/25 08:18:18;;;;;;;11.40;10.30;;;6.00;99.90;;;;;;5114121;28;20446;-65
2021/12/25 08:20:44;;;;;;;10.27;9.37;;;6.00;99.90;;;;;;5114133;28;20815;-65
2021/12/25 08:23:11;;;;;;;10.13;9.23;;;6.00;99.90;;;;;;5114047;28;20458;-65
2021/12/25 08:25:38;;;;;;;11.67;10.33;;;6.00;99.90;;;;;;5113732;28;20443;-66
2021/12/25 08:28:05;;;;;;;11.30;10.20;;;6.00;99.90;;;;;;5113685;28;20442;-66
2021/12/25 08:30:32;;;;;;;11.30;9.40;;;6.00;99.90;;;;;;5113966;28;20478;-66
2021/12/25 08:33:01;;;;;;;10.90;9.97;;;6.00;99.90;;;;;;5113882;28;20861;-66
2021/12/25 08:35:29;;;;;;;11.27;10.07;;;6.00;99.90;;;;;;5113937;28;20776;-66
2021/12/25 08:37:57;;;;;;;10.40;9.50;;;6.00;99.90;;;;;;5113908;28;20454;-67
2021/12/25 08:40:25;;;;;;;11.93;10.23;;;6.00;99.90;;;;;;5113549;28;20963;-66
2021/12/25 08:42:57;;;;;;;10.93;9.87;;;6.00;99.90;;;;;;5113670;28;20849;-66
2021/12/25 08:45:45;;;;;;;11.20;10.20;;;6.10;99.90;;;;;;5113885;28;20470;-66
2021/12/25 08:48:17;;;;;;;10.00;9.10;;;6.10;99.90;;;;;;5113834;28;20431;-66
2021/12/25 08:50:46;;;;;;;10.77;9.80;;;6.10;99.90;;;;;;5113822;28;20423;-66
2021/12/25 08:53:13;;;;;;;9.77;8.97;;;6.00;99.90;;;;;;5113636;28;21010;-66
2021/12/25 08:55:40;;;;;;;11.00;9.90;;;6.00;99.90;;;;;;5113703;28;20811;-66
2021/12/25 08:58:07;;;;;;;9.97;9.07;;;6.00;99.90;;;;;;5115477;28;20442;-66
2021/12/25 09:00:34;;;;;;;10.43;9.53;;;6.00;99.90;;;;;;5117915;27;20451;-66
2021/12/25 09:03:01;;;;;;;10.17;9.30;;;6.00;99.90;;;;;;5117406;28;20920;-66
2021/12/25 09:05:29;;;;;;;9.93;9.07;;;6.10;99.90;;;;;;5117765;28;20439;-66
2021/12/25 09:07:56;;;;;;;9.23;8.43;;;6.00;99.90;;;;;;5117479;28;20427;-66
2021/12/25 09:10:23;;;;;;;9.90;9.10;;;6.00;99.90;;;;;;5117668;28;20458;-66
2021/12/25 09:12:50;;;;;;;10.57;9.63;;;6.10;99.90;;;;;;5117202;27;20504;-66
2021/12/25 09:15:17;;;;;;;10.40;9.50;;;6.10;99.90;;;;;;5117348;28;20447;-66
2021/12/25 09:17:45;;;;;;;9.40;8.60;;;6.10;99.90;;;;;;5117614;28;20446;-66
2021/12/25 09:20:15;;;;;;;9.50;8.70;;;6.10;99.90;;;;;;5117130;28;20890;-66
2021/12/25 09:22:44;;;;;;;11.63;10.63;;;6.10;99.90;;;;;;5117227;28;20916;-67
2021/12/25 09:25:11;;;;;;;9.30;8.50;;;6.20;99.90;;;;;;5117305;28;20516;-66
2021/12/25 09:27:38;;;;;;;9.77;8.93;;;6.30;99.90;;;;;;5117166;28;20936;-65
2021/12/25 09:30:06;;;;;;;9.30;8.50;;;6.30;99.90;;;;;;5117659;28;20454;-66
2021/12/25 09:32:33;;;;;;;10.03;9.07;;;6.40;99.90;;;;;;5117329;28;20439;-66
2021/12/25 09:35:00;;;;;;;10.43;9.30;;;6.40;99.90;;;;;;5117955;28;20844;-66
2021/12/25 09:37:27;;;;;;;9.40;8.60;;;6.40;99.90;;;;;;5117083;28;20451;-66
2021/12/25 09:39:56;;;;;;;9.73;8.80;;;6.40;99.90;;;;;;5117233;28;20447;-66
2021/12/25 09:42:24;;;;;;;9.40;8.70;;;6.50;99.90;;;;;;5117049;28;20450;-66
2021/12/25 09:44:52;;;;;;;9.23;8.43;;;6.50;99.90;;;;;;5116895;28;20566;-66
2021/12/25 09:47:18;;;;;;;9.60;8.80;;;6.60;99.90;;;;;;5116957;28;20446;-66
2021/12/25 09:49:45;;;;;;;10.17;9.10;;;6.60;99.90;;;;;;5116872;28;20451;-66
2021/12/25 09:52:12;;;;;;;9.00;8.20;;;6.60;99.90;;;;;;5116477;28;20933;-66
2021/12/25 09:54:39;;;;;;;9.37;8.57;;;6.60;99.90;;;;;;5116629;28;20517;-66
2021/12/25 09:57:07;;;;;;;10.60;9.63;;;6.60;99.90;;;;;;5116715;28;20447;-66
2021/12/25 09:59:34;;;;;;;10.27;9.33;;;6.60;99.90;;;;;;5116353;28;20462;-66
2021/12/25 10:02:01;;;;;;;9.63;8.37;;;6.70;99.90;;;;;;5116593;28;20443;-66
2021/12/25 10:04:35;;;;;;;10.20;9.30;;;6.60;99.70;;;;;;5116218;28;21006;-66
2021/12/25 10:07:17;;;;;;;10.53;9.63;;;6.60;99.80;;;;;;5116171;28;20931;-67
2021/12/25 10:09:53;;;;;;;9.23;8.43;;;6.60;99.70;;;;;;5115014;28;20943;-66
2021/12/25 10:12:21;;;;;;;9.03;8.27;;;6.50;99.00;;;;;;5116433;28;20433;-66
2021/12/25 10:14:53;;;;;;;10.10;9.17;;;6.40;99.50;;;;;;5116256;28;20486;-65
2021/12/25 10:17:23;;;;;;;10.13;9.23;;;6.50;99.90;;;;;;5116439;28;20521;-66
2021/12/25 10:20:08;;;;;;;9.73;8.90;;;6.50;99.90;;;;;;5116252;28;20442;-66
2021/12/25 10:22:36;;;;;;;9.80;8.90;;;6.40;99.90;;;;;;5116313;28;20462;-66
2021/12/25 10:25:10;;;;;;;11.17;10.13;;;6.50;99.90;;;;;;5116146;28;20458;-66
2021/12/25 10:27:47;;;;;;;10.20;9.30;;;6.50;99.90;;;;;;5115992;28;20759;-66
2021/12/25 10:30:14;;;;;;;10.53;9.63;;;6.60;99.90;;;;;;5116189;28;20777;-66
2021/12/25 10:32:41;;;;;;;9.93;9.07;;;6.70;99.90;;;;;;5116813;28;20438;-66
2021/12/25 10:35:17;;;;;;;10.20;9.40;;;6.70;99.90;;;;;;5115874;28;20470;-66
2021/12/25 10:37:46;;;;;;;9.40;8.60;;;6.70;99.90;;;;;;5115946;28;20442;-66
2021/12/25 10:40:24;;;;;;;10.20;9.40;;;6.70;99.70;;;;;;5115852;28;20443;-66
2021/12/25 10:42:53;;;;;;;10.00;9.10;;;6.70;99.70;;;;;;5115491;28;20427;-66
2021/12/25 10:45:19;;;;;;;10.20;9.30;;;6.80;99.50;;;;;;5115788;28;20817;-66
2021/12/25 10:47:59;;;;;;;10.07;9.27;;;6.80;99.50;;;;;;5115750;28;20500;-66
2021/12/25 10:50:25;;;;;;;9.40;8.50;;;6.90;99.60;;;;;;5115758;28;20790;-66
2021/12/25 10:52:52;;;;;;;9.87;9.07;;;7.00;99.50;;;;;;5115449;28;20446;-66
2021/12/25 10:55:22;;;;;;;9.60;8.80;;;7.00;98.90;;;;;;5115680;27;20447;-66
2021/12/25 10:57:53;;;;;;;8.93;8.23;;;7.20;99.10;;;;;;5115298;27;20443;-66
2021/12/25 11:00:29;;;;;;;8.63;7.93;;;7.30;98.90;;;;;;5115175;28;20458;-66
2021/12/25 11:02:58;;;;;;;9.20;8.40;;;7.40;98.80;;;;;;5115168;28;20924;-66
2021/12/25 11:05:27;;;;;;;8.70;8.00;;;7.50;98.70;;;;;;5115431;28;20496;-66
2021/12/25 11:08:04;;;;;;;8.60;7.80;;;7.50;98.50;;;;;;5115365;27;20465;-66
2021/12/25 11:10:32;;;;;;;7.10;6.63;;;7.50;98.20;;;;;;5115353;27;20427;-66
2021/12/25 11:13:00;;;;;;;8.30;7.50;;;7.50;98.00;;;;;;5115175;28;20418;-66
2021/12/25 11:15:32;;;;;;;7.90;7.20;;;7.40;97.80;;;;;;5115472;28;20932;-66
2021/12/25 11:18:06;;;;;;;8.23;7.53;;;7.40;97.70;;;;;;5114872;28;20916;-66
2021/12/25 11:20:35;;;;;;;7.97;7.33;;;7.30;97.60;;;;;;5114866;28;20422;-66
2021/12/25 11:23:04;;;;;;;8.53;7.83;;;7.20;97.40;;;;;;5115004;28;20438;-67
2021/12/25 11:25:33;;;;;;;6.97;6.47;;;7.10;97.60;;;;;;5115053;28;20427;-66
2021/12/25 11:28:03;;;;;;;7.43;6.73;;;7.00;97.10;;;;;;5115304;28;20442;-66
2021/12/25 11:30:33;;;;;;;7.17;6.57;;;6.90;97.30;;;;;;5114650;28;20897;-66
2021/12/25 11:33:00;;;;;;;7.17;6.60;;;6.90;97.40;;;;;;5114725;28;20445;-66
2021/12/25 11:35:27;;;;;;;7.50;6.90;;;6.80;97.50;;;;;;5114546;28;20458;-66
2021/12/25 11:37:56;;;;;;;9.10;7.70;;;6.70;97.60;;;;;;5114765;28;20447;-66
2021/12/25 11:40:25;;;;;;;7.13;6.53;;;6.70;97.60;;;;;;5114777;28;20443;-66
2021/12/25 11:42:56;;;;;;;7.00;6.50;;;6.70;97.50;;;;;;5114656;27;20450;-66
2021/12/25 11:45:29;;;;;;;7.00;6.40;;;6.60;97.80;;;;;;5114675;28;20427;-68
2021/12/25 11:47:59;;;;;;;7.37;6.53;;;6.60;97.80;;;;;;5114648;28;20431;-67
2021/12/25 11:50:39;;;;;;;7.57;6.90;;;6.60;98.00;;;;;;5114594;28;20453;-67
2021/12/25 11:53:14;;;;;;;6.65;6.05;;;6.60;98.30;;;;;;5114116;28;21203;-67
2021/12/25 11:56:18;;;;;;;7.43;6.73;;;6.50;98.00;;;;;;5114513;28;20437;-66
2021/12/25 11:58:49;;;;;;;7.07;6.47;;;6.50;98.50;;;;;;5113973;28;20590;-66
2021/12/25 12:01:30;;;;;;;6.83;5.83;;;6.60;98.70;;;;;;5114363;28;20473;-66
2021/12/25 12:03:59;;;;;;;6.03;5.53;;;6.50;98.20;;;;;;5114366;28;20463;-67
2021/12/25 12:06:56;;;;;;;6.80;6.27;;;6.50;98.40;;;;;;5114272;28;20450;-67
2021/12/25 12:09:25;;;;;;;5.67;5.27;;;6.50;98.60;;;;;;5113945;28;20940;-67
2021/12/25 12:12:10;;;;;;;6.90;6.30;;;6.40;98.70;;;;;;5114147;28;20796;-67
2021/12/25 12:14:37;;;;;;;6.53;6.00;;;6.40;98.80;;;;;;5114118;28;20579;-67
2021/12/25 12:17:08;;;;;;;6.27;5.80;;;6.50;98.80;;;;;;5113967;28;20446;-67
2021/12/25 12:19:46;;;;;;;5.47;5.07;;;6.40;98.80;;;;;;5114058;28;20438;-67
2021/12/25 12:26:01;;;;;;;7.13;5.77;;;6.30;98.60;;;;;;5071080;28;20478;-67
2021/12/25 12:28:52;;;;;;;6.00;5.50;;;6.30;98.60;;;;;;5110627;28;20854;-66
2021/12/25 12:31:39;;;;;;;5.90;5.40;;;6.30;98.70;;;;;;5114897;28;20428;-67
2021/12/25 12:34:36;;;;;;;7.37;6.73;;;6.20;98.50;;;;;;5113518;28;20987;-67
2021/12/25 12:37:29;;;;;;;6.13;5.57;;;6.20;98.40;;;;;;5113942;28;20427;-66
2021/12/25 12:40:20;;;;;;;6.93;6.23;;;6.20;98.50;;;;;;5114301;28;20455;-67
2021/12/25 12:42:52;;;;;;;5.43;4.97;;;6.20;98.60;;;;;;5114365;28;20811;-67
2021/12/25 12:45:20;;;;;;;6.23;5.27;;;6.10;98.70;;;;;;5114275;28;20454;-67
2021/12/25 12:48:09;;;;;;;5.57;5.10;;;6.00;98.50;;;;;;5113886;28;20483;-67
2021/12/25 12:50:39;;;;;;;6.40;5.73;;;6.00;98.60;;;;;;5114138;28;20478;-67
2021/12/25 12:53:07;;;;;;;6.27;5.63;;;6.00;98.70;;;;;;5114194;28;20464;-67
2021/12/25 12:55:37;;;;;;;6.73;6.13;;;6.00;98.90;;;;;;5113407;28;20474;-67
2021/12/25 12:58:09;;;;;;;6.50;5.50;;;6.10;99.00;;;;;;5113570;28;20478;-67
2021/12/25 13:00:38;;;;;;;5.97;5.37;;;6.10;99.20;;;;;;5113832;28;20430;-67
2021/12/25 13:03:05;;;;;;;7.20;5.10;;;6.00;99.90;;;;;;5113363;28;20452;-67
2021/12/25 13:05:39;;;;;;;6.17;5.57;;;6.00;99.90;;;;;;5113694;28;20443;-67
2021/12/25 13:08:14;;;;;;;5.50;5.00;;;6.00;99.60;;;;;;5113715;28;20431;-67
2021/12/25 13:10:47;;;;;;;6.00;5.40;;;6.00;99.70;;;;;;5113751;28;20545;-68
2021/12/25 13:13:18;;;;;;;5.93;5.33;;;6.00;99.50;;;;;;5113570;28;20467;-68
2021/12/25 13:15:49;;;;;;;7.10;5.13;;;6.00;99.30;;;;;;5113630;28;20466;-68
2021/12/25 13:18:17;;;;;;;5.47;5.00;;;6.00;99.40;;;;;;5113265;28;20485;-68
2021/12/25 13:20:48;;;;;;;6.00;5.40;;;6.00;98.90;;;;;;5113445;28;20908;-68
2021/12/25 13:23:16;;;;;;;4.93;4.53;;;6.00;98.80;;;;;;5113279;28;20998;-68
2021/12/25 13:25:49;;;;;;;5.40;4.90;;;5.90;98.70;;;;;;5113577;28;20450;-68
2021/12/25 13:28:16;;;;;;;5.23;4.80;;;5.90;98.90;;;;;;5113596;28;20439;-68
2021/12/25 13:30:47;;;;;;;5.10;4.70;;;5.90;99.20;;;;;;5113593;28;20449;-68
2021/12/25 13:33:16;;;;;;;5.57;4.97;;;6.00;99.10;;;;;;5113486;28;20545;-68
2021/12/25 13:35:44;;;;;;;5.03;4.63;;;6.00;99.10;;;;;;5113432;28;20481;-68
2021/12/25 13:38:11;;;;;;;4.73;4.33;;;6.00;99.20;;;;;;5113659;28;20469;-68
2021/12/25 13:40:39;;;;;;;4.50;4.10;;;6.00;99.30;;;;;;5113678;28;20451;-68
2021/12/25 13:43:08;;;;;;;6.47;4.57;;;6.10;99.30;;;;;;5113753;28;20451;-68
2021/12/25 13:45:35;;;;;;;6.60;5.80;;;6.10;98.80;;;;;;5116844;28;20438;-68
2021/12/25 13:48:03;;;;;;;4.50;4.10;;;6.10;98.70;;;;;;5117250;28;20496;-68
2021/12/25 13:50:30;;;;;;;6.00;5.00;;;6.10;98.60;;;;;;5117169;28;20448;-68
2021/12/25 13:53:05;;;;;;;5.47;4.97;;;6.10;98.80;;;;;;5116905;28;20538;-68